Albion, IN (46701)

1:03 PM EDT on August 29, 2015 (GMT -0400)
Crane Lake | | Change Station
CLOSE
Current Station
Personal Weather Station
Location: Columbia City, IN
Elevation: 925 ft
Nearby Weather Stations

Elev 925 ft 41.28 °N, 85.47 °W | Updated 10 minutes ago

Mostly Cloudy
Mostly Cloudy
74.9 °F
Feels Like 76 °F
N
0.0
Wind Variable Wind from SSE
Gusts 1.0 mph

Today
High -- | Low -- °F
--% Chance of Precip.
Yesterday
High -- | Low -- °F
Precip. -- in
7:04 AM 8:19 PM
Full, 100% visible
Pressure 30.10 in
Visibility 10.0 miles
Clouds Clear
Heat Index 76 °F
Dew Point 68 °F
Humidity 79%
Rainfall 0.00 in
Snow Depth Not available.
UV 9 out of 12
Pollen 9.30 out of 12
Air Quality Not available.
Flu Activity Not available.
METAR KGWB 291655Z AUTO 11003KT 10SM CLR 23/17 A3010 RMK AO2
Pressure 30.10 in
Visibility 10.0 miles
Clouds Clear
Heat Index 76 °F
Dew Point 68 °F
Humidity 79%
Rainfall 0.00 in
Snow Depth Not available.
UV 9 out of 12
Pollen 9.30 out of 12
Air Quality Not available.
Flu Activity Not available.
METAR KGWB 291655Z AUTO 11003KT 10SM CLR 23/17 A3010 RMK AO2

10-Day Weather Forecast

×

Almanac

Astronomy

Aug. 29, 2015 Rise Set
Actual Time
Civil Twilight
Nautical Twilight
Astronomical Twilight
Moon
Length of Visible Light
Length of Day
Tomorrow will be .
, % of the Moon is Illuminated

Today's Extremes

State Highs State Lows

Community

WunderPhotos

Upload Photos

1,850,724 photos uploaded!

WunderBlogs® & News

Nearby

Air Quality

  Air Quality AQ Index Pollutant
Not available.

Snow Depth

Station Depth Elevation

Earthquake Activity

City Distance Mag. Time & Date
Minimum magnitude displayed is 2.5.

Coastal Water Temperatures

Place Temperature

Stations

Nearby Weather Stations

Station Location Temp. Windchill Dew Point Humidity Wind Precip. Elev Updated Type